Time;durP1;ratioP1;P1;durP2;ratioP2;P2;SDS_P1;SDS_P2;PMS_P1;PMS_P2;Temp;Humidity;BMP_temperature;BMP_pressure;BME280_temperature;BME280_humidity;BME280_pressure;Samples;Min_cycle;Max_cycle;Signal;HPM_P1;HPM_P2
2022/04/01 00:02:13;;;;;;;28.87;27.70;;;18.70;53.10;;;;;;5074820;28;20534;-59
2022/04/01 00:04:42;;;;;;;29.03;27.83;;;18.70;53.20;;;;;;5074994;28;20487;-59
2022/04/01 00:07:08;;;;;;;29.77;28.60;;;18.70;53.20;;;;;;5074553;28;20447;-59
2022/04/01 00:09:37;;;;;;;26.53;25.47;;;18.70;53.30;;;;;;5075407;28;20453;-58
2022/04/01 00:12:04;;;;;;;26.30;25.20;;;18.80;53.20;;;;;;5074921;28;20447;-55
2022/04/01 00:14:31;;;;;;;25.80;24.80;;;18.90;53.10;;;;;;5074765;28;20479;-59
2022/04/01 00:16:58;;;;;;;27.20;26.20;;;18.90;52.80;;;;;;5074316;28;20455;-59
2022/04/01 00:19:25;;;;;;;26.93;25.90;;;19.00;52.60;;;;;;5074964;28;20440;-59
2022/04/01 00:21:53;;;;;;;27.90;26.80;;;19.10;52.40;;;;;;5074926;28;20470;-59
2022/04/01 00:24:20;;;;;;;26.90;25.90;;;19.20;52.20;;;;;;5074649;28;20607;-56
2022/04/01 00:26:47;;;;;;;26.67;25.67;;;19.20;52.00;;;;;;5074066;28;20443;-58
2022/04/01 00:29:17;;;;;;;26.97;25.97;;;19.30;51.90;;;;;;5074547;28;20497;-59
2022/04/01 00:31:44;;;;;;;26.80;25.80;;;19.30;51.70;;;;;;5074703;28;20447;-59
2022/04/01 00:34:16;;;;;;;26.50;25.60;;;19.30;51.50;;;;;;5074524;28;20538;-58
2022/04/01 00:36:44;;;;;;;27.03;26.10;;;19.30;51.40;;;;;;5074230;28;20447;-59
2022/04/01 00:39:12;;;;;;;26.80;25.83;;;19.40;51.30;;;;;;5074712;28;20886;-59
2022/04/01 00:41:40;;;;;;;26.00;25.10;;;19.40;51.10;;;;;;5073756;28;20810;-59
2022/04/01 00:44:15;;;;;;;26.57;25.57;;;19.40;51.00;;;;;;5074061;28;20892;-57
2022/04/01 00:46:42;;;;;;;25.60;24.70;;;19.40;51.00;;;;;;5073804;28;20455;-57
2022/04/01 00:49:09;;;;;;;27.40;26.40;;;19.40;51.00;;;;;;5074077;28;20931;-57
2022/04/01 00:51:37;;;;;;;26.20;25.30;;;19.40;51.00;;;;;;5073676;28;20451;-58
2022/04/01 00:54:05;;;;;;;26.53;25.53;;;19.40;50.80;;;;;;5073512;28;20467;-59
2022/04/01 00:56:34;;;;;;;27.73;26.73;;;19.40;50.70;;;;;;5073195;28;20448;-56
2022/04/01 00:59:02;;;;;;;25.50;24.60;;;19.40;50.60;;;;;;5074232;28;20821;-59
2022/04/01 01:01:30;;;;;;;27.53;26.53;;;19.40;50.50;;;;;;5074035;28;20505;-56
2022/04/01 01:03:57;;;;;;;27.50;26.50;;;19.40;50.50;;;;;;5072082;28;20831;-58
2022/04/01 01:06:24;;;;;;;27.00;26.00;;;19.40;50.40;;;;;;5073334;28;20501;-57
2022/04/01 01:08:51;;;;;;;26.97;25.97;;;19.40;50.40;;;;;;5073344;28;20498;-59
2022/04/01 01:11:18;;;;;;;27.07;25.97;;;19.40;50.40;;;;;;5073249;28;20452;-56
2022/04/01 01:13:46;;;;;;;26.03;25.03;;;19.40;50.30;;;;;;5072734;28;20467;-59
2022/04/01 01:16:13;;;;;;;27.60;26.60;;;19.30;50.30;;;;;;5072964;28;20501;-56
2022/04/01 01:18:40;;;;;;;27.63;26.63;;;19.30;50.20;;;;;;5073219;28;20934;-59
2022/04/01 01:21:09;;;;;;;26.73;25.73;;;19.30;50.20;;;;;;5073320;28;20440;-59
2022/04/01 01:23:38;;;;;;;28.33;27.23;;;19.30;50.20;;;;;;5072583;28;20474;-56
2022/04/01 01:26:06;;;;;;;26.73;25.83;;;19.30;50.20;;;;;;5072544;28;20479;-57
2022/04/01 01:28:33;;;;;;;27.23;26.30;;;19.30;50.20;;;;;;5072476;28;20446;-57
2022/04/01 01:31:00;;;;;;;27.47;25.70;;;19.30;50.20;;;;;;5072347;28;20443;-59
2022/04/01 01:33:27;;;;;;;26.00;25.00;;;19.20;50.10;;;;;;5072031;28;20463;-57
2022/04/01 01:35:54;;;;;;;26.20;25.30;;;19.20;50.20;;;;;;5072495;28;20443;-59
2022/04/01 01:38:20;;;;;;;26.63;25.73;;;19.20;50.20;;;;;;5072883;28;20443;-58
2022/04/01 01:40:47;;;;;;;26.60;25.70;;;19.20;50.20;;;;;;5073053;28;20447;-59
2022/04/01 01:43:15;;;;;;;27.57;26.57;;;19.20;50.10;;;;;;5072291;28;20467;-59
2022/04/01 01:45:42;;;;;;;26.10;25.20;;;19.30;50.10;;;;;;5072318;28;20483;-59
2022/04/01 01:48:09;;;;;;;26.13;25.23;;;19.30;50.00;;;;;;5072607;28;20546;-59
2022/04/01 01:56:05;;;;;;;26.07;25.10;;;19.30;49.90;;;;;;5072469;28;20411;-59
2022/04/01 01:58:34;;;;;;;26.97;26.07;;;19.30;49.80;;;;;;5072584;28;20500;-59
2022/04/01 02:01:01;;;;;;;26.83;25.83;;;19.30;49.80;;;;;;5072462;28;20833;-58
2022/04/01 02:03:28;;;;;;;27.10;26.10;;;19.40;49.70;;;;;;5072971;28;20525;-59
2022/04/01 02:05:55;;;;;;;26.60;25.70;;;19.40;49.60;;;;;;5073389;28;20479;-56
2022/04/01 02:08:22;;;;;;;26.90;25.90;;;19.40;49.50;;;;;;5072605;28;20447;-57
2022/04/01 02:10:48;;;;;;;27.70;26.70;;;19.40;49.40;;;;;;5072521;28;20471;-59
2022/04/01 02:13:16;;;;;;;26.80;25.90;;;19.40;49.30;;;;;;5072512;28;20463;-58
2022/04/01 02:15:44;;;;;;;27.00;26.10;;;19.40;49.40;;;;;;5072065;28;20954;-58
2022/04/01 02:18:11;;;;;;;27.53;26.53;;;19.40;49.30;;;;;;5072552;28;20947;-58
2022/04/01 02:20:38;;;;;;;26.00;25.10;;;19.40;49.30;;;;;;5071909;28;20458;-59
2022/04/01 02:23:05;;;;;;;26.87;25.87;;;19.40;49.20;;;;;;5072442;28;20455;-59
2022/04/01 02:25:32;;;;;;;27.20;26.20;;;19.40;49.20;;;;;;5072020;28;20483;-58
2022/04/01 02:27:59;;;;;;;27.00;26.00;;;19.40;49.20;;;;;;5072144;28;20443;-56
2022/04/01 02:30:27;;;;;;;28.03;27.03;;;19.40;49.20;;;;;;5071658;28;20453;-59
2022/04/01 02:32:55;;;;;;;27.90;26.90;;;19.40;49.10;;;;;;5072428;28;20443;-58
2022/04/01 02:35:22;;;;;;;27.43;26.43;;;19.40;49.10;;;;;;5072423;28;20451;-59
2022/04/01 02:37:48;;;;;;;26.30;25.30;;;19.40;49.10;;;;;;5072854;28;20443;-59
2022/04/01 02:40:15;;;;;;;28.40;27.20;;;19.40;49.00;;;;;;5072782;28;20448;-59
2022/04/01 02:42:42;;;;;;;28.83;27.73;;;19.40;49.00;;;;;;5072324;28;20872;-59
2022/04/01 02:45:10;;;;;;;28.63;27.53;;;19.40;48.90;;;;;;5071840;28;20828;-58
2022/04/01 02:47:37;;;;;;;28.10;27.10;;;19.40;48.90;;;;;;5072017;28;20473;-55
2022/04/01 02:50:07;;;;;;;27.60;26.50;;;19.30;48.80;;;;;;5072539;28;20444;-57
2022/04/01 02:52:34;;;;;;;26.53;25.53;;;19.30;48.80;;;;;;5072108;28;20447;-58
2022/04/01 02:55:00;;;;;;;29.00;27.90;;;19.30;48.80;;;;;;5071596;28;20471;-59
2022/04/01 02:57:27;;;;;;;27.00;26.10;;;19.30;48.80;;;;;;5071530;28;20942;-59
2022/04/01 02:59:54;;;;;;;29.30;28.10;;;19.30;48.80;;;;;;5072198;28;20454;-59
2022/04/01 03:02:22;;;;;;;28.10;27.10;;;19.30;48.80;;;;;;5072081;28;20497;-56
2022/04/01 03:04:48;;;;;;;29.50;28.50;;;19.20;48.70;;;;;;5071971;28;20488;-59
2022/04/01 03:07:16;;;;;;;30.00;28.90;;;19.30;48.80;;;;;;5071782;28;20444;-59
2022/04/01 03:09:43;;;;;;;27.43;26.43;;;19.30;49.30;;;;;;5072109;28;20810;-58
2022/04/01 03:12:11;;;;;;;27.60;26.60;;;19.20;48.70;;;;;;5071968;28;20454;-59
2022/04/01 03:14:38;;;;;;;27.80;26.77;;;19.20;48.70;;;;;;5071655;28;20463;-59
2022/04/01 03:17:05;;;;;;;27.63;26.63;;;19.20;48.70;;;;;;5071799;28;20454;-57
2022/04/01 03:19:31;;;;;;;27.47;26.47;;;19.20;48.60;;;;;;5071773;28;20443;-58
2022/04/01 03:22:00;;;;;;;28.17;27.10;;;19.30;48.70;;;;;;5072234;28;20435;-60
2022/04/01 03:24:28;;;;;;;28.97;27.87;;;19.30;48.50;;;;;;5071731;28;21045;-58
2022/04/01 03:26:54;;;;;;;28.87;27.80;;;19.30;48.50;;;;;;5072686;28;20454;-57
2022/04/01 03:29:21;;;;;;;27.77;26.77;;;19.30;48.50;;;;;;5075291;28;20443;-58
2022/04/01 03:31:48;;;;;;;27.70;26.70;;;19.30;48.40;;;;;;5075953;28;20466;-60
2022/04/01 03:34:16;;;;;;;27.47;26.47;;;19.30;48.30;;;;;;5075694;28;20566;-56
2022/04/01 03:36:44;;;;;;;30.00;28.90;;;19.40;48.30;;;;;;5075237;28;20541;-58
2022/04/01 03:39:11;;;;;;;30.23;29.10;;;19.40;48.20;;;;;;5075514;28;20985;-59
2022/04/01 03:41:39;;;;;;;28.33;27.23;;;19.40;48.20;;;;;;5074747;28;20467;-56
2022/04/01 03:44:09;;;;;;;28.43;27.33;;;19.40;48.10;;;;;;5074357;28;20470;-60
2022/04/01 03:46:46;;;;;;;28.07;27.07;;;19.40;48.10;;;;;;5074923;28;21194;-60
2022/04/01 03:49:17;;;;;;;26.97;25.97;;;19.40;48.00;;;;;;5074641;28;20454;-54
2022/04/01 03:51:48;;;;;;;27.50;26.50;;;19.30;47.90;;;;;;5074054;28;20443;-55
2022/04/01 03:54:16;;;;;;;27.03;26.03;;;19.30;48.00;;;;;;5073643;28;20475;-55
2022/04/01 03:56:49;;;;;;;25.20;24.30;;;19.30;48.00;;;;;;5073705;28;20458;-55
2022/04/01 03:59:18;;;;;;;28.40;27.30;;;19.30;47.90;;;;;;5073844;28;20451;-53
2022/04/01 04:01:45;;;;;;;29.90;28.80;;;19.30;48.00;;;;;;5074000;28;20443;-55
2022/04/01 04:04:13;;;;;;;30.13;29.03;;;19.30;47.90;;;;;;5073921;28;20459;-56
2022/04/01 04:06:41;;;;;;;30.17;29.07;;;19.30;47.90;;;;;;5073883;28;20981;-55
2022/04/01 04:09:08;;;;;;;30.10;29.00;;;19.20;47.90;;;;;;5073923;28;20959;-54
2022/04/01 04:11:35;;;;;;;28.67;27.47;;;19.30;47.90;;;;;;5073774;28;20474;-55
2022/04/01 04:14:04;;;;;;;28.83;27.73;;;19.30;47.80;;;;;;5073388;28;20841;-57
2022/04/01 04:16:36;;;;;;;28.00;26.80;;;19.30;47.90;;;;;;5073607;28;20440;-56
2022/04/01 04:19:09;;;;;;;27.50;26.50;;;19.20;47.80;;;;;;5073738;28;20513;-55
2022/04/01 04:21:41;;;;;;;29.13;28.03;;;19.20;47.80;;;;;;5073599;28;20444;-55
2022/04/01 04:24:15;;;;;;;29.93;28.73;;;19.20;47.80;;;;;;5073718;28;20468;-54
2022/04/01 04:26:47;;;;;;;30.00;28.90;;;19.20;47.80;;;;;;5073167;28;20486;-57
2022/04/01 04:29:17;;;;;;;29.40;28.30;;;19.20;47.80;;;;;;5073469;28;20807;-57
2022/04/01 04:31:53;;;;;;;29.80;28.60;;;19.20;47.80;;;;;;5072986;28;20447;-58
2022/04/01 04:34:23;;;;;;;28.80;27.70;;;19.20;47.90;;;;;;5073200;28;20477;-58
2022/04/01 04:36:52;;;;;;;30.00;28.40;;;19.20;48.00;;;;;;5072982;28;20444;-57
2022/04/01 04:39:30;;;;;;;28.97;27.77;;;19.10;48.10;;;;;;5072227;28;20454;-57
2022/04/01 04:41:58;;;;;;;28.23;27.03;;;19.10;48.30;;;;;;5073701;28;20448;-59
2022/04/01 04:44:29;;;;;;;28.37;27.17;;;19.10;48.50;;;;;;5073091;28;20460;-56
2022/04/01 04:46:57;;;;;;;29.43;28.10;;;19.10;48.70;;;;;;5071782;28;20533;-55
2022/04/01 04:49:25;;;;;;;29.60;28.40;;;19.10;49.50;;;;;;5071833;28;20823;-55
2022/04/01 04:51:53;;;;;;;29.97;28.57;;;19.10;50.00;;;;;;5072795;28;20455;-55
2022/04/01 04:54:21;;;;;;;30.53;29.20;;;19.10;50.10;;;;;;5072538;28;20483;-53
2022/04/01 04:56:50;;;;;;;31.37;29.57;;;19.10;50.00;;;;;;5072356;28;20450;-56
2022/04/01 04:59:18;;;;;;;29.23;27.63;;;19.10;49.90;;;;;;5072702;28;20446;-59
2022/04/01 05:01:55;;;;;;;33.80;32.10;;;19.10;49.90;;;;;;5072552;28;20471;-55
2022/04/01 05:04:43;;;;;;;32.70;30.83;;;19.10;49.80;;;;;;5072645;28;21046;-59
2022/04/01 05:07:29;;;;;;;29.53;28.23;;;19.20;49.70;;;;;;5072254;28;20483;-56
2022/04/01 05:10:03;;;;;;;29.70;28.33;;;19.10;49.50;;;;;;5072518;28;20439;-55
2022/04/01 05:12:36;;;;;;;32.50;31.17;;;19.10;49.50;;;;;;5072424;28;20451;-54
2022/04/01 05:15:08;;;;;;;29.50;28.30;;;19.10;49.50;;;;;;5072284;28;20971;-54
2022/04/01 05:17:38;;;;;;;30.70;29.50;;;19.10;49.50;;;;;;5072174;28;20435;-59
2022/04/01 05:20:15;;;;;;;31.50;30.10;;;19.10;49.40;;;;;;5072329;28;20442;-60
2022/04/01 05:22:53;;;;;;;32.00;30.60;;;19.10;49.30;;;;;;5072165;28;20454;-59
2022/04/01 05:25:22;;;;;;;31.30;30.00;;;19.10;49.30;;;;;;5071915;28;20439;-55
2022/04/01 05:27:50;;;;;;;31.20;29.90;;;19.00;49.30;;;;;;5071928;28;20443;-58
2022/04/01 05:30:20;;;;;;;32.27;31.00;;;19.10;49.40;;;;;;5072002;28;20447;-59
2022/04/01 05:33:06;;;;;;;32.50;31.10;;;19.00;49.20;;;;;;5072009;28;20454;-58
2022/04/01 05:35:37;;;;;;;32.60;31.20;;;19.00;49.30;;;;;;5071706;28;20914;-58
2022/04/01 05:38:05;;;;;;;32.27;30.67;;;18.90;49.30;;;;;;5072143;28;20957;-57
2022/04/01 05:40:32;;;;;;;31.53;30.23;;;18.90;49.30;;;;;;5071927;28;20490;-58
2022/04/01 05:43:01;;;;;;;31.20;30.00;;;18.90;49.40;;;;;;5071658;28;20937;-60
2022/04/01 05:45:30;;;;;;;31.90;30.50;;;18.80;49.40;;;;;;5071618;28;22478;-60
2022/04/01 05:47:58;;;;;;;32.33;31.00;;;18.80;49.50;;;;;;5071745;28;20447;-58
2022/04/01 05:50:28;;;;;;;32.03;30.50;;;18.70;49.60;;;;;;5071534;28;20803;-59
2022/04/01 05:52:55;;;;;;;31.43;30.20;;;18.60;49.70;;;;;;5071498;28;20445;-59
2022/04/01 05:55:25;;;;;;;31.20;29.70;;;18.60;49.80;;;;;;5105343;22;20486;-51
2022/04/01 05:57:52;;;;;;;31.03;29.60;;;18.50;49.90;;;;;;5087964;28;20442;-51
2022/04/01 06:00:19;;;;;;;31.70;30.40;;;18.40;50.00;;;;;;5091932;28;20520;-54
2022/04/01 06:03:24;;;;;;;29.97;28.77;;;18.40;50.10;;;;;;5091806;28;20447;-53
2022/04/01 06:05:56;;;;;;;30.87;29.67;;;18.30;50.20;;;;;;5044076;28;20670;-51
2022/04/01 06:08:33;;;;;;;30.17;28.97;;;18.30;50.30;;;;;;5071561;28;20762;-54
2022/04/01 06:11:10;;;;;;;30.70;29.43;;;18.30;50.30;;;;;;5071449;28;20450;-51
2022/04/01 06:13:48;;;;;;;30.50;29.30;;;18.20;50.30;;;;;;5071481;28;20444;-52
2022/04/01 06:16:34;;;;;;;30.47;29.27;;;18.20;50.40;;;;;;5071345;28;20922;-57
2022/04/01 06:19:11;;;;;;;29.70;28.43;;;18.20;50.50;;;;;;5071539;28;20462;-53
2022/04/01 06:21:47;;;;;;;29.37;28.17;;;18.10;50.40;;;;;;5071513;28;20446;-52
2022/04/01 06:24:22;;;;;;;28.40;27.30;;;18.10;50.50;;;;;;5071409;28;20825;-51
2022/04/01 06:26:56;;;;;;;27.70;26.57;;;18.10;50.60;;;;;;5071191;28;20483;-51
2022/04/01 06:29:35;;;;;;;29.40;28.20;;;18.10;50.60;;;;;;5071404;28;20455;-50
2022/04/01 06:32:05;;;;;;;29.80;28.50;;;18.00;50.60;;;;;;5071436;28;20447;-50
2022/04/01 06:34:42;;;;;;;29.63;28.43;;;17.90;51.30;;;;;;5071236;28;20468;-52
2022/04/01 06:37:21;;;;;;;30.03;28.73;;;17.80;50.90;;;;;;5071110;28;20439;-51
2022/04/01 06:39:58;;;;;;;30.50;29.30;;;17.80;51.00;;;;;;5071308;28;20443;-50
2022/04/01 06:42:31;;;;;;;30.40;29.10;;;17.80;51.10;;;;;;5071361;28;20509;-51
2022/04/01 06:44:58;;;;;;;30.00;28.80;;;17.70;51.10;;;;;;5071180;28;20463;-50
2022/04/01 06:47:25;;;;;;;30.43;29.23;;;17.70;51.20;;;;;;5070819;28;20490;-51
2022/04/01 06:49:51;;;;;;;32.00;30.70;;;17.70;51.30;;;;;;5071138;28;20447;-52
2022/04/01 06:52:20;;;;;;;31.00;29.70;;;17.70;51.30;;;;;;5071108;28;20930;-51
2022/04/01 06:54:47;;;;;;;30.53;29.30;;;17.60;51.40;;;;;;5070910;28;20854;-53
2022/04/01 06:57:14;;;;;;;30.97;29.73;;;17.60;51.40;;;;;;5070851;28;20525;-52
2022/04/01 06:59:41;;;;;;;30.73;29.47;;;17.60;51.50;;;;;;5071120;28;20454;-53
2022/04/01 07:02:08;;;;;;;29.23;28.03;;;17.60;51.50;;;;;;5072052;28;20454;-51
2022/04/01 07:04:34;;;;;;;30.77;29.67;;;17.60;51.60;;;;;;5074843;28;20815;-50
2022/04/01 07:07:01;;;;;;;31.23;30.00;;;17.60;51.50;;;;;;5074548;28;20486;-51
2022/04/01 07:09:29;;;;;;;30.03;28.87;;;17.60;51.50;;;;;;5074773;28;20451;-51
2022/04/01 07:11:59;;;;;;;29.27;28.10;;;17.50;51.40;;;;;;5074761;28;20452;-53
2022/04/01 07:14:27;;;;;;;29.60;28.40;;;17.50;51.40;;;;;;5074645;28;20473;-54
2022/04/01 07:16:54;;;;;;;29.87;28.63;;;17.60;51.40;;;;;;5074531;28;20538;-57
2022/04/01 07:19:20;;;;;;;30.07;28.87;;;17.60;51.40;;;;;;5074806;28;20459;-53
2022/04/01 07:21:47;;;;;;;29.50;28.20;;;17.50;51.30;;;;;;5074503;28;20455;-54
2022/04/01 07:24:14;;;;;;;30.13;28.93;;;17.50;51.30;;;;;;5074421;28;20459;-51
2022/04/01 07:26:44;;;;;;;28.67;27.47;;;17.50;51.30;;;;;;5074280;28;20518;-52
2022/04/01 07:29:11;;;;;;;28.73;27.63;;;17.50;51.40;;;;;;5074238;28;20451;-51
2022/04/01 07:34:32;;;;;;;29.50;28.40;;;17.50;51.30;;;;;;5074378;28;20550;-52
2022/04/01 07:36:59;;;;;;;30.57;29.37;;;17.50;51.30;;;;;;5074067;28;20443;-51
2022/04/01 07:39:26;;;;;;;30.40;29.20;;;17.40;51.30;;;;;;5074228;28;20486;-51
2022/04/01 07:41:54;;;;;;;30.20;29.00;;;17.40;51.40;;;;;;5074179;28;20443;-52
2022/04/01 07:44:22;;;;;;;29.73;28.53;;;17.40;51.40;;;;;;5074115;28;20832;-50
2022/04/01 07:46:48;;;;;;;30.00;28.60;;;17.40;51.30;;;;;;5073822;28;20853;-54
2022/04/01 07:49:15;;;;;;;30.77;29.57;;;17.40;51.30;;;;;;5074257;28;20805;-51
2022/04/01 07:51:43;;;;;;;28.70;27.60;;;17.40;51.30;;;;;;5074039;28;20455;-54
2022/04/01 07:54:10;;;;;;;29.60;28.40;;;17.40;51.20;;;;;;5073843;28;20479;-53
2022/04/01 07:56:37;;;;;;;27.70;26.60;;;17.40;51.10;;;;;;5073799;28;20796;-51
2022/04/01 07:59:06;;;;;;;29.60;28.50;;;17.40;51.20;;;;;;5073753;28;20813;-51
2022/04/01 08:01:32;;;;;;;30.63;29.43;;;17.30;51.20;;;;;;5073887;28;20783;-50
2022/04/01 08:03:59;;;;;;;30.13;28.83;;;17.30;51.20;;;;;;5073811;28;20467;-53
2022/04/01 08:06:26;;;;;;;29.70;28.50;;;17.30;51.10;;;;;;5073306;28;20475;-52
2022/04/01 08:08:55;;;;;;;29.73;28.47;;;17.30;51.10;;;;;;5073660;28;20440;-51
2022/04/01 08:11:23;;;;;;;29.43;28.23;;;17.30;51.10;;;;;;5073664;28;20485;-51
2022/04/01 08:13:50;;;;;;;30.20;29.00;;;17.30;51.10;;;;;;5073349;28;20471;-51
2022/04/01 08:16:18;;;;;;;28.93;27.73;;;17.30;51.10;;;;;;5073491;28;20448;-50
2022/04/01 08:18:44;;;;;;;29.27;28.07;;;17.30;51.20;;;;;;5073612;28;20451;-52
2022/04/01 08:21:11;;;;;;;31.43;30.10;;;17.30;51.10;;;;;;5073450;28;20439;-51
2022/04/01 08:23:38;;;;;;;29.87;28.67;;;17.20;51.10;;;;;;5073271;28;20464;-51
2022/04/01 08:26:05;;;;;;;29.50;28.33;;;17.20;51.10;;;;;;5073127;28;20455;-50
2022/04/01 08:28:32;;;;;;;30.00;28.80;;;17.20;51.10;;;;;;5073392;28;20444;-53
2022/04/01 08:30:59;;;;;;;30.27;29.07;;;17.20;51.00;;;;;;5073271;28;20448;-52
2022/04/01 08:33:27;;;;;;;30.40;29.20;;;17.20;51.10;;;;;;5073209;28;20451;-51
2022/04/01 08:35:54;;;;;;;30.17;28.97;;;17.10;51.00;;;;;;5072984;28;20443;-50
2022/04/01 08:38:21;;;;;;;27.90;26.70;;;17.10;51.10;;;;;;5073120;28;21136;-50
2022/04/01 08:40:48;;;;;;;28.47;27.37;;;17.10;51.10;;;;;;5072924;28;20443;-49
2022/04/01 08:43:25;;;;;;;29.17;27.87;;;17.10;51.10;;;;;;5073114;28;20451;-51
2022/04/01 08:45:52;;;;;;;29.97;28.77;;;17.00;51.00;;;;;;5072792;28;20450;-51
2022/04/01 08:48:18;;;;;;;30.00;28.80;;;17.00;51.00;;;;;;5072817;28;20572;-51
2022/04/01 08:50:47;;;;;;;31.07;29.77;;;17.00;51.00;;;;;;5072847;28;20443;-54
2022/04/01 08:53:13;;;;;;;29.53;28.33;;;17.00;51.00;;;;;;5072910;28;20444;-51
2022/04/01 08:55:40;;;;;;;29.77;28.57;;;17.00;51.00;;;;;;5072517;28;20478;-52
2022/04/01 08:58:08;;;;;;;29.17;27.97;;;17.00;50.90;;;;;;5072676;28;20443;-51
2022/04/01 09:00:38;;;;;;;30.30;29.10;;;17.00;51.00;;;;;;5072782;28;20483;-50
2022/04/01 09:03:08;;;;;;;31.00;29.70;;;16.90;50.90;;;;;;5072701;28;20440;-50
2022/04/01 09:05:35;;;;;;;29.47;28.27;;;16.90;50.90;;;;;;5072320;28;20474;-50
2022/04/01 09:08:05;;;;;;;30.37;29.17;;;16.90;50.90;;;;;;5072391;28;20537;-52
2022/04/01 09:10:37;;;;;;;30.60;29.40;;;16.90;50.80;;;;;;5072566;28;20443;-50
2022/04/01 09:13:07;;;;;;;30.37;29.17;;;16.90;50.90;;;;;;5072551;28;20448;-49
2022/04/01 09:15:42;;;;;;;30.97;29.77;;;16.90;50.90;;;;;;5072293;28;20470;-54
2022/04/01 09:18:09;;;;;;;30.67;29.47;;;16.90;50.80;;;;;;5072265;28;20443;-50
2022/04/01 09:20:48;;;;;;;30.60;29.10;;;16.90;50.90;;;;;;5072266;28;20455;-50
2022/04/01 09:23:22;;;;;;;27.90;26.80;;;16.90;50.80;;;;;;5072279;28;20447;-52
2022/04/01 09:25:50;;;;;;;28.23;27.13;;;16.90;50.80;;;;;;5071592;28;20483;-50
2022/04/01 09:28:29;;;;;;;28.63;27.43;;;16.90;50.80;;;;;;5072038;28;20487;-50
2022/04/01 09:31:06;;;;;;;28.37;27.17;;;16.90;51.40;;;;;;5072115;28;20582;-50
2022/04/01 09:33:50;;;;;;;27.63;26.53;;;16.90;50.70;;;;;;5071976;28;20957;-51
2022/04/01 09:36:18;;;;;;;28.27;26.97;;;16.80;50.70;;;;;;5071919;28;20443;-53
2022/04/01 09:39:06;;;;;;;27.73;26.60;;;16.80;50.70;;;;;;5071783;28;20957;-50
2022/04/01 09:41:35;;;;;;;27.90;26.80;;;16.80;50.70;;;;;;5071931;28;20938;-50
2022/04/01 09:44:04;;;;;;;27.60;26.50;;;16.80;50.50;;;;;;5072021;28;20475;-56
2022/04/01 09:46:31;;;;;;;28.00;26.80;;;16.90;50.70;;;;;;5071656;28;20455;-56
2022/04/01 09:49:00;;;;;;;27.73;26.63;;;16.90;50.50;;;;;;5071859;28;20444;-55
2022/04/01 09:51:30;;;;;;;27.43;26.33;;;16.90;50.40;;;;;;5071707;28;20436;-56
2022/04/01 09:53:58;;;;;;;27.20;26.10;;;16.90;50.80;;;;;;5071729;28;21032;-52
2022/04/01 09:56:38;;;;;;;27.40;26.20;;;16.90;50.20;;;;;;5071536;28;20463;-52
2022/04/01 09:59:06;;;;;;;31.70;30.50;;;16.90;50.20;;;;;;5071696;28;20451;-53
2022/04/01 10:01:34;;;;;;;31.23;30.10;;;16.90;50.10;;;;;;5071645;28;20474;-51
2022/04/01 10:04:00;;;;;;;31.37;30.17;;;16.90;50.10;;;;;;5071416;28;20467;-53
2022/04/01 10:06:28;;;;;;;32.33;31.03;;;16.90;50.10;;;;;;5071312;28;20821;-51
2022/04/01 10:08:57;;;;;;;32.03;30.83;;;16.90;50.00;;;;;;5071559;28;20450;-53
2022/04/01 10:11:25;;;;;;;32.33;31.13;;;16.90;50.00;;;;;;5071491;28;20451;-51
2022/04/01 10:13:54;;;;;;;29.47;28.27;;;16.90;50.00;;;;;;5071489;28;20970;-50
2022/04/01 10:16:21;;;;;;;30.30;29.10;;;16.90;50.00;;;;;;5071267;28;20436;-54
2022/04/01 10:18:49;;;;;;;30.50;29.27;;;16.80;49.90;;;;;;5071411;28;20450;-51
2022/04/01 10:21:19;;;;;;;28.57;27.47;;;16.80;50.00;;;;;;5071467;28;20789;-51
2022/04/01 10:23:54;;;;;;;28.13;27.03;;;16.90;50.00;;;;;;5071242;28;20467;-53
2022/04/01 10:26:23;;;;;;;29.63;28.43;;;16.80;49.90;;;;;;5071122;28;20438;-51
2022/04/01 10:28:52;;;;;;;29.90;28.80;;;16.80;49.80;;;;;;5071159;28;20524;-51
2022/04/01 10:31:21;;;;;;;31.20;30.00;;;16.80;49.80;;;;;;5071333;28;20451;-50
2022/04/01 10:33:48;;;;;;;28.67;27.57;;;16.80;49.90;;;;;;5071259;28;20463;-51
2022/04/01 10:36:16;;;;;;;30.00;28.80;;;16.80;49.90;;;;;;5070965;28;20451;-50
2022/04/01 10:38:43;;;;;;;30.13;28.90;;;16.80;49.90;;;;;;5074942;28;20980;-52
2022/04/01 10:41:12;;;;;;;29.50;28.30;;;16.80;49.90;;;;;;5075416;28;20447;-51
2022/04/01 10:43:41;;;;;;;30.20;29.00;;;16.80;49.90;;;;;;5075330;28;20478;-52
2022/04/01 10:46:10;;;;;;;28.70;27.60;;;16.80;49.80;;;;;;5075008;28;20451;-50
2022/04/01 10:51:41;;;;;;;28.77;27.53;;;16.80;49.70;;;;;;5075220;28;20438;-53
2022/04/01 10:54:37;;;;;;;29.90;28.70;;;16.80;49.60;;;;;;5074924;28;20482;-50
2022/04/01 10:57:07;;;;;;;31.43;30.23;;;16.70;49.50;;;;;;5074916;28;20436;-50
2022/04/01 10:59:40;;;;;;;29.70;28.60;;;16.70;49.70;;;;;;5074890;28;20447;-50
2022/04/01 11:02:09;;;;;;;28.57;27.47;;;16.70;49.70;;;;;;5074937;28;20951;-51
2022/04/01 11:04:41;;;;;;;28.83;27.63;;;16.70;49.50;;;;;;5074848;28;20474;-51
2022/04/01 11:07:11;;;;;;;30.20;29.00;;;16.70;49.50;;;;;;5074527;28;21032;-50
2022/04/01 11:09:49;;;;;;;29.53;28.33;;;16.70;49.50;;;;;;5074802;28;20447;-52
2022/04/01 11:12:29;;;;;;;29.47;28.27;;;16.70;49.50;;;;;;5074628;28;20443;-52
2022/04/01 11:15:27;;;;;;;29.63;28.43;;;16.70;49.50;;;;;;5074654;28;20989;-51
2022/04/01 11:18:09;;;;;;;30.40;29.20;;;16.70;49.50;;;;;;5067385;28;20447;-51
2022/04/01 11:20:39;;;;;;;30.93;29.73;;;16.70;49.40;;;;;;5074591;28;20444;-50
2022/04/01 11:23:13;;;;;;;28.97;27.87;;;16.70;49.40;;;;;;5074485;28;20530;-52
2022/04/01 11:25:54;;;;;;;28.90;27.80;;;16.70;49.30;;;;;;5074260;28;20465;-51
2022/04/01 11:28:22;;;;;;;29.87;28.67;;;16.60;49.30;;;;;;5074284;28;20570;-50
2022/04/01 11:31:12;;;;;;;29.20;28.00;;;16.70;49.30;;;;;;5074475;28;20462;-53
2022/04/01 11:33:39;;;;;;;29.03;27.83;;;16.60;49.30;;;;;;5074286;28;20477;-51
2022/04/01 11:36:08;;;;;;;30.43;29.23;;;16.60;49.30;;;;;;5074058;28;20446;-50
2022/04/01 11:38:35;;;;;;;30.80;29.50;;;16.70;49.40;;;;;;5074326;28;20805;-50
2022/04/01 11:41:03;;;;;;;30.00;28.80;;;16.70;49.20;;;;;;5074205;28;20444;-50
2022/04/01 11:43:31;;;;;;;30.10;28.90;;;16.60;49.10;;;;;;5074182;28;20451;-52
2022/04/01 11:46:02;;;;;;;30.77;29.47;;;16.60;49.20;;;;;;5074030;28;20811;-53
2022/04/01 11:48:30;;;;;;;30.20;29.00;;;16.60;49.10;;;;;;5073366;28;20479;-50
2022/04/01 11:51:00;;;;;;;30.83;29.63;;;16.70;49.10;;;;;;5074102;28;20448;-51
2022/04/01 11:53:30;;;;;;;29.43;28.23;;;16.60;49.10;;;;;;5073813;28;20447;-52
2022/04/01 11:55:58;;;;;;;29.57;28.37;;;16.60;49.10;;;;;;5074390;28;20505;-50
2022/04/01 11:58:26;;;;;;;29.87;28.67;;;16.60;49.20;;;;;;5073966;28;20439;-53
2022/04/01 12:00:53;;;;;;;30.37;29.17;;;16.60;49.20;;;;;;5073908;28;20440;-51
2022/04/01 12:03:20;;;;;;;30.00;28.70;;;16.60;49.20;;;;;;5073767;28;20804;-50
2022/04/01 12:05:51;;;;;;;30.20;29.10;;;16.50;49.20;;;;;;5073669;28;20825;-51
2022/04/01 12:11:06;;;;;;;29.97;28.77;;;16.50;49.20;;;;;;5073818;28;20423;-50
2022/04/01 12:13:33;;;;;;;30.80;29.50;;;16.50;49.20;;;;;;5073702;28;20448;-51
2022/04/01 12:16:00;;;;;;;29.63;28.43;;;16.50;49.20;;;;;;5073387;28;20447;-53
2022/04/01 12:18:29;;;;;;;28.57;27.47;;;16.40;49.20;;;;;;5073413;28;20801;-51
2022/04/01 12:20:57;;;;;;;29.00;27.87;;;16.50;49.20;;;;;;5073525;28;20538;-49
2022/04/01 12:23:26;;;;;;;29.23;28.03;;;16.50;49.20;;;;;;5073309;28;20450;-50
2022/04/01 12:25:55;;;;;;;29.70;28.50;;;16.50;49.10;;;;;;5073324;28;20818;-51
2022/04/01 12:28:27;;;;;;;30.10;28.90;;;16.40;49.00;;;;;;5073221;28;20483;-48
2022/04/01 12:30:55;;;;;;;30.67;29.47;;;16.40;49.10;;;;;;5073305;28;20451;-51
2022/04/01 12:33:25;;;;;;;30.00;28.90;;;16.50;49.00;;;;;;5073130;28;20479;-50
2022/04/01 12:35:58;;;;;;;28.63;27.53;;;16.50;48.90;;;;;;5072974;28;20458;-52
2022/04/01 12:38:25;;;;;;;28.03;26.90;;;16.50;48.90;;;;;;5073122;28;20973;-51
2022/04/01 12:40:55;;;;;;;29.00;27.80;;;16.40;48.80;;;;;;5073083;28;20811;-50
2022/04/01 12:43:34;;;;;;;27.90;26.80;;;16.40;49.40;;;;;;5072922;28;20482;-52
2022/04/01 12:46:03;;;;;;;29.67;28.47;;;16.40;48.80;;;;;;5072782;28;20530;-54
2022/04/01 12:48:30;;;;;;;29.40;28.10;;;16.50;49.30;;;;;;5072713;28;20479;-50
2022/04/01 12:50:58;;;;;;;29.80;28.60;;;16.50;48.60;;;;;;5072951;28;20810;-51
2022/04/01 12:53:25;;;;;;;29.47;28.27;;;16.50;48.60;;;;;;5072636;28;20456;-54
2022/04/01 12:55:53;;;;;;;28.73;27.53;;;16.50;48.60;;;;;;5072628;28;20443;-53